Terminal Aerodrome Forecast
Issued by NWS

Home | Current Version | Previous Version | Text Only | Print | Product List | Glossary On
Versions: 1 2 3 4 5 6 7 8 9 10 11 12 13 14 15 16 17 18 19 20 21 22 23 24 25 26 27 28 29 30 31
658
FTUS45 KGJT 262005 AAA
TAFRIL
TAF AMD
KRIL 262005Z 2620/2718 28014G24KT P6SM VCSH SCT030 BKN070
     FM270200 21005KT P6SM -RA SCT020 BKN040
     FM270900 27012G20KT P6SM -RA BKN025 BKN040
     FM271500 28015G25KT P6SM -RA SCT020 BKN040=

USA.gov is the U.S. government's official web portal to all federal, state and local government web resources and services.